sensor_id;sensor_type;location;lat;lon;timestamp;temperature;humidity
1359;DHT22;673;48.098;14.422;2024-02-21T00:32:29;5.90;99.90
1359;DHT22;673;48.098;14.422;2024-02-21T00:45:05;5.90;99.90
1359;DHT22;673;48.098;14.422;2024-02-21T00:47:35;5.90;99.90
1359;DHT22;673;48.098;14.422;2024-02-21T00:50:02;5.90;99.90
1359;DHT22;673;48.098;14.422;2024-02-21T00:52:29;5.90;99.90
1359;DHT22;673;48.098;14.422;2024-02-21T00:54:56;5.90;99.90
1359;DHT22;673;48.098;14.422;2024-02-21T00:57:23;5.90;99.90
1359;DHT22;673;48.098;14.422;2024-02-21T00:59:50;5.80;99.90
1359;DHT22;673;48.098;14.422;2024-02-21T01:02:17;5.90;99.90
1359;DHT22;673;48.098;14.422;2024-02-21T01:04:45;5.90;99.90
1359;DHT22;673;48.098;14.422;2024-02-21T01:07:12;5.90;99.90
1359;DHT22;673;48.098;14.422;2024-02-21T01:09:39;5.90;99.90
1359;DHT22;673;48.098;14.422;2024-02-21T01:12:06;5.90;99.90
1359;DHT22;673;48.098;14.422;2024-02-21T01:14:35;6.00;99.90
1359;DHT22;673;48.098;14.422;2024-02-21T01:17:02;6.00;99.90
1359;DHT22;673;48.098;14.422;2024-02-21T01:19:28;5.90;99.90
1359;DHT22;673;48.098;14.422;2024-02-21T01:21:57;5.90;99.90
1359;DHT22;673;48.098;14.422;2024-02-21T01:24:24;5.90;99.90
1359;DHT22;673;48.098;14.422;2024-02-21T01:26:51;5.90;99.90
1359;DHT22;673;48.098;14.422;2024-02-21T01:29:18;5.90;99.90
1359;DHT22;673;48.098;14.422;2024-02-21T01:31:45;5.90;99.90
1359;DHT22;673;48.098;14.422;2024-02-21T01:34:12;5.90;99.90
1359;DHT22;673;48.098;14.422;2024-02-21T01:36:39;5.90;99.90
1359;DHT22;673;48.098;14.422;2024-02-21T01:39:09;5.80;99.90
1359;DHT22;673;48.098;14.422;2024-02-21T01:41:35;5.80;99.90
1359;DHT22;673;48.098;14.422;2024-02-21T01:44:03;5.80;99.90
1359;DHT22;673;48.098;14.422;2024-02-21T01:46:30;5.80;99.90
1359;DHT22;673;48.098;14.422;2024-02-21T01:48:57;5.90;99.90
1359;DHT22;673;48.098;14.422;2024-02-21T01:51:24;5.90;99.90
1359;DHT22;673;48.098;14.422;2024-02-21T01:53:52;6.00;99.90
1359;DHT22;673;48.098;14.422;2024-02-21T01:56:21;5.90;99.90
1359;DHT22;673;48.098;14.422;2024-02-21T01:58:49;6.00;99.90
1359;DHT22;673;48.098;14.422;2024-02-21T02:01:17;6.00;99.90
1359;DHT22;673;48.098;14.422;2024-02-21T02:03:45;5.90;99.90
1359;DHT22;673;48.098;14.422;2024-02-21T02:06:13;5.90;99.90
1359;DHT22;673;48.098;14.422;2024-02-21T02:08:41;5.80;99.90
1359;DHT22;673;48.098;14.422;2024-02-21T02:11:08;5.80;99.90
1359;DHT22;673;48.098;14.422;2024-02-21T02:13:37;5.80;99.90
1359;DHT22;673;48.098;14.422;2024-02-21T02:16:05;5.80;99.90
1359;DHT22;673;48.098;14.422;2024-02-21T02:18:32;5.80;99.90
1359;DHT22;673;48.098;14.422;2024-02-21T02:20:59;5.80;99.90
1359;DHT22;673;48.098;14.422;2024-02-21T02:23:28;5.80;99.90
1359;DHT22;673;48.098;14.422;2024-02-21T02:25:57;5.80;99.90
1359;DHT22;673;48.098;14.422;2024-02-21T02:28:24;5.80;99.90
1359;DHT22;673;48.098;14.422;2024-02-21T02:30:51;5.80;99.90
1359;DHT22;673;48.098;14.422;2024-02-21T02:33:18;5.80;99.90
1359;DHT22;673;48.098;14.422;2024-02-21T02:35:44;5.90;99.90
1359;DHT22;673;48.098;14.422;2024-02-21T02:38:12;5.90;99.90
1359;DHT22;673;48.098;14.422;2024-02-21T02:40:40;5.80;99.90
1359;DHT22;673;48.098;14.422;2024-02-21T02:43:07;5.80;99.90
1359;DHT22;673;48.098;14.422;2024-02-21T02:45:34;5.90;99.90
1359;DHT22;673;48.098;14.422;2024-02-21T02:48:02;5.90;99.90
1359;DHT22;673;48.098;14.422;2024-02-21T02:50:29;5.90;99.90
1359;DHT22;673;48.098;14.422;2024-02-21T02:52:56;6.00;99.90
1359;DHT22;673;48.098;14.422;2024-02-21T02:55:23;6.00;99.90
1359;DHT22;673;48.098;14.422;2024-02-21T02:57:53;5.90;99.90
1359;DHT22;673;48.098;14.422;2024-02-21T03:00:21;6.00;99.90
1359;DHT22;673;48.098;14.422;2024-02-21T03:02:49;6.10;99.90
1359;DHT22;673;48.098;14.422;2024-02-21T03:05:17;6.10;99.90
1359;DHT22;673;48.098;14.422;2024-02-21T03:07:45;6.10;99.90
1359;DHT22;673;48.098;14.422;2024-02-21T03:10:12;6.10;99.90
1359;DHT22;673;48.098;14.422;2024-02-21T03:12:42;6.20;99.90
1359;DHT22;673;48.098;14.422;2024-02-21T03:15:11;6.20;99.90
1359;DHT22;673;48.098;14.422;2024-02-21T03:17:38;6.20;99.90
1359;DHT22;673;48.098;14.422;2024-02-21T03:20:06;6.30;99.90
1359;DHT22;673;48.098;14.422;2024-02-21T03:22:35;6.30;99.90
1359;DHT22;673;48.098;14.422;2024-02-21T03:25:02;6.30;99.90
1359;DHT22;673;48.098;14.422;2024-02-21T03:27:29;6.40;99.90
1359;DHT22;673;48.098;14.422;2024-02-21T03:29:56;6.30;99.90
1359;DHT22;673;48.098;14.422;2024-02-21T03:32:25;6.40;99.90
1359;DHT22;673;48.098;14.422;2024-02-21T03:34:52;6.40;99.90
1359;DHT22;673;48.098;14.422;2024-02-21T03:37:20;6.30;99.90
1359;DHT22;673;48.098;14.422;2024-02-21T03:39:47;6.30;99.90
1359;DHT22;673;48.098;14.422;2024-02-21T03:42:14;6.40;99.90
1359;DHT22;673;48.098;14.422;2024-02-21T03:44:41;6.40;99.90
1359;DHT22;673;48.098;14.422;2024-02-21T03:47:08;6.40;99.90
1359;DHT22;673;48.098;14.422;2024-02-21T03:49:38;6.40;99.90
1359;DHT22;673;48.098;14.422;2024-02-21T03:52:05;6.40;99.90
1359;DHT22;673;48.098;14.422;2024-02-21T03:54:32;6.40;99.90
1359;DHT22;673;48.098;14.422;2024-02-21T03:56:59;6.40;99.90
1359;DHT22;673;48.098;14.422;2024-02-21T03:59:26;6.40;99.90
1359;DHT22;673;48.098;14.422;2024-02-21T04:01:53;6.40;99.90
1359;DHT22;673;48.098;14.422;2024-02-21T04:04:21;6.40;99.90
1359;DHT22;673;48.098;14.422;2024-02-21T04:06:50;6.40;99.90
1359;DHT22;673;48.098;14.422;2024-02-21T04:09:17;6.50;99.90
1359;DHT22;673;48.098;14.422;2024-02-21T04:11:44;6.40;99.90
1359;DHT22;673;48.098;14.422;2024-02-21T04:14:11;6.40;99.90
1359;DHT22;673;48.098;14.422;2024-02-21T04:16:38;6.40;99.90
1359;DHT22;673;48.098;14.422;2024-02-21T04:19:05;6.40;99.90
1359;DHT22;673;48.098;14.422;2024-02-21T04:21:32;6.40;99.90
1359;DHT22;673;48.098;14.422;2024-02-21T04:24:01;6.40;99.90
1359;DHT22;673;48.098;14.422;2024-02-21T04:26:30;6.30;99.90
1359;DHT22;673;48.098;14.422;2024-02-21T04:28:58;6.30;99.90
1359;DHT22;673;48.098;14.422;2024-02-21T04:31:25;6.40;99.90
1359;DHT22;673;48.098;14.422;2024-02-21T04:33:51;6.40;99.90
1359;DHT22;673;48.098;14.422;2024-02-21T04:36:18;6.40;99.90
1359;DHT22;673;48.098;14.422;2024-02-21T04:38:45;6.40;99.90
1359;DHT22;673;48.098;14.422;2024-02-21T04:41:14;6.40;99.90
1359;DHT22;673;48.098;14.422;2024-02-21T04:43:41;6.40;99.90
1359;DHT22;673;48.098;14.422;2024-02-21T04:46:07;6.40;99.90
1359;DHT22;673;48.098;14.422;2024-02-21T04:48:35;6.40;99.90
1359;DHT22;673;48.098;14.422;2024-02-21T04:51:03;6.40;99.90
1359;DHT22;673;48.098;14.422;2024-02-21T04:53:30;6.40;99.90
1359;DHT22;673;48.098;14.422;2024-02-21T04:55:56;6.40;99.90
1359;DHT22;673;48.098;14.422;2024-02-21T04:58:25;6.40;99.90
1359;DHT22;673;48.098;14.422;2024-02-21T05:00:52;6.40;99.90
1359;DHT22;673;48.098;14.422;2024-02-21T05:03:20;6.40;99.90
1359;DHT22;673;48.098;14.422;2024-02-21T05:05:47;6.50;99.90
1359;DHT22;673;48.098;14.422;2024-02-21T05:08:14;6.40;99.90
1359;DHT22;673;48.098;14.422;2024-02-21T05:10:41;6.40;99.90
1359;DHT22;673;48.098;14.422;2024-02-21T05:13:08;6.40;99.90
1359;DHT22;673;48.098;14.422;2024-02-21T05:15:37;6.30;99.90
1359;DHT22;673;48.098;14.422;2024-02-21T05:18:04;6.30;99.90
1359;DHT22;673;48.098;14.422;2024-02-21T05:20:31;6.20;99.90
1359;DHT22;673;48.098;14.422;2024-02-21T05:22:58;6.20;99.90
1359;DHT22;673;48.098;14.422;2024-02-21T05:25:25;6.20;99.90
1359;DHT22;673;48.098;14.422;2024-02-21T05:27:52;6.20;99.90
1359;DHT22;673;48.098;14.422;2024-02-21T05:30:21;6.10;99.90
1359;DHT22;673;48.098;14.422;2024-02-21T05:32:49;6.10;99.90
1359;DHT22;673;48.098;14.422;2024-02-21T05:35:16;6.10;99.90
1359;DHT22;673;48.098;14.422;2024-02-21T05:37:43;6.10;99.90
1359;DHT22;673;48.098;14.422;2024-02-21T05:40:12;6.10;99.90
1359;DHT22;673;48.098;14.422;2024-02-21T05:42:40;6.10;99.90
1359;DHT22;673;48.098;14.422;2024-02-21T05:45:07;6.00;99.90
1359;DHT22;673;48.098;14.422;2024-02-21T05:47:34;6.00;99.90
1359;DHT22;673;48.098;14.422;2024-02-21T05:50:03;6.00;99.90
1359;DHT22;673;48.098;14.422;2024-02-21T05:52:30;5.90;99.90
1359;DHT22;673;48.098;14.422;2024-02-21T05:54:57;5.90;99.90
1359;DHT22;673;48.098;14.422;2024-02-21T05:57:24;5.90;99.90
1359;DHT22;673;48.098;14.422;2024-02-21T05:59:51;5.90;99.90
1359;DHT22;673;48.098;14.422;2024-02-21T06:02:18;5.90;99.90
1359;DHT22;673;48.098;14.422;2024-02-21T06:04:45;6.00;99.90
1359;DHT22;673;48.098;14.422;2024-02-21T06:07:14;5.90;99.90
1359;DHT22;673;48.098;14.422;2024-02-21T06:09:41;5.90;99.90
1359;DHT22;673;48.098;14.422;2024-02-21T06:12:08;5.80;99.90
1359;DHT22;673;48.098;14.422;2024-02-21T06:14:35;5.80;99.90
1359;DHT22;673;48.098;14.422;2024-02-21T06:17:03;5.80;99.90
1359;DHT22;673;48.098;14.422;2024-02-21T06:19:29;5.70;99.90
1359;DHT22;673;48.098;14.422;2024-02-21T06:21:56;5.70;99.90
1359;DHT22;673;48.098;14.422;2024-02-21T06:24:25;5.80;99.90
1359;DHT22;673;48.098;14.422;2024-02-21T06:26:52;5.70;99.90
1359;DHT22;673;48.098;14.422;2024-02-21T06:29:18;5.70;99.90
1359;DHT22;673;48.098;14.422;2024-02-21T06:31:45;5.70;99.90
1359;DHT22;673;48.098;14.422;2024-02-21T06:34:12;5.70;99.90
1359;DHT22;673;48.098;14.422;2024-02-21T06:36:39;5.70;99.90
1359;DHT22;673;48.098;14.422;2024-02-21T06:39:06;5.90;99.90
1359;DHT22;673;48.098;14.422;2024-02-21T06:41:35;5.90;99.90
1359;DHT22;673;48.098;14.422;2024-02-21T06:44:02;6.00;99.90
1359;DHT22;673;48.098;14.422;2024-02-21T06:46:29;6.10;99.90
1359;DHT22;673;48.098;14.422;2024-02-21T06:48:59;6.10;99.90
1359;DHT22;673;48.098;14.422;2024-02-21T06:51:27;6.30;99.90
1359;DHT22;673;48.098;14.422;2024-02-21T06:53:54;6.30;99.90
1359;DHT22;673;48.098;14.422;2024-02-21T06:56:23;6.40;99.90
1359;DHT22;673;48.098;14.422;2024-02-21T06:58:55;6.50;99.90
1359;DHT22;673;48.098;14.422;2024-02-21T07:01:22;6.60;99.90
1359;DHT22;673;48.098;14.422;2024-02-21T07:03:49;6.60;99.90
1359;DHT22;673;48.098;14.422;2024-02-21T07:06:16;6.70;99.90
1359;DHT22;673;48.098;14.422;2024-02-21T07:08:43;6.80;99.90
1359;DHT22;673;48.098;14.422;2024-02-21T07:11:11;6.90;99.90
1359;DHT22;673;48.098;14.422;2024-02-21T07:13:38;7.00;99.90
1359;DHT22;673;48.098;14.422;2024-02-21T07:16:07;7.00;99.90
1359;DHT22;673;48.098;14.422;2024-02-21T07:18:34;7.00;99.90
1359;DHT22;673;48.098;14.422;2024-02-21T07:21:01;7.10;99.90
1359;DHT22;673;48.098;14.422;2024-02-21T07:23:28;7.20;99.90
1359;DHT22;673;48.098;14.422;2024-02-21T07:25:55;7.40;99.90
1359;DHT22;673;48.098;14.422;2024-02-21T07:28:22;7.40;99.90
1359;DHT22;673;48.098;14.422;2024-02-21T07:30:49;7.50;99.90
1359;DHT22;673;48.098;14.422;2024-02-21T07:33:17;7.50;99.90
1359;DHT22;673;48.098;14.422;2024-02-21T07:35:44;7.60;99.90
1359;DHT22;673;48.098;14.422;2024-02-21T07:38:11;7.60;99.90
1359;DHT22;673;48.098;14.422;2024-02-21T07:40:38;7.60;99.90
1359;DHT22;673;48.098;14.422;2024-02-21T07:43:05;7.70;99.90
1359;DHT22;673;48.098;14.422;2024-02-21T07:45:32;7.70;99.90
1359;DHT22;673;48.098;14.422;2024-02-21T07:47:59;7.60;99.90
1359;DHT22;673;48.098;14.422;2024-02-21T07:50:27;7.60;99.90
1359;DHT22;673;48.098;14.422;2024-02-21T07:52:55;7.60;99.90
1359;DHT22;673;48.098;14.422;2024-02-21T07:55:22;7.60;99.90
1359;DHT22;673;48.098;14.422;2024-02-21T07:57:49;7.60;99.90
1359;DHT22;673;48.098;14.422;2024-02-21T08:00:17;7.30;99.90
1359;DHT22;673;48.098;14.422;2024-02-21T08:02:47;7.30;99.90
1359;DHT22;673;48.098;14.422;2024-02-21T08:05:14;7.30;99.90
1359;DHT22;673;48.098;14.422;2024-02-21T08:07:43;7.30;99.90
1359;DHT22;673;48.098;14.422;2024-02-21T08:10:10;7.40;99.90
1359;DHT22;673;48.098;14.422;2024-02-21T08:12:37;7.30;99.90
1359;DHT22;673;48.098;14.422;2024-02-21T08:15:04;7.20;99.90
1359;DHT22;673;48.098;14.422;2024-02-21T08:17:33;7.40;99.90
1359;DHT22;673;48.098;14.422;2024-02-21T08:20:00;7.50;99.90
1359;DHT22;673;48.098;14.422;2024-02-21T08:22:28;7.60;99.90
1359;DHT22;673;48.098;14.422;2024-02-21T08:24:56;7.50;99.90
1359;DHT22;673;48.098;14.422;2024-02-21T08:27:23;7.60;99.90
1359;DHT22;673;48.098;14.422;2024-02-21T08:29:50;7.60;99.90
1359;DHT22;673;48.098;14.422;2024-02-21T08:32:17;7.50;99.90
1359;DHT22;673;48.098;14.422;2024-02-21T08:34:44;7.70;99.90
1359;DHT22;673;48.098;14.422;2024-02-21T08:37:11;7.90;99.90
1359;DHT22;673;48.098;14.422;2024-02-21T08:39:38;8.10;99.90
1359;DHT22;673;48.098;14.422;2024-02-21T08:42:07;8.60;99.90
1359;DHT22;673;48.098;14.422;2024-02-21T08:44:34;8.90;99.90
1359;DHT22;673;48.098;14.422;2024-02-21T08:47:01;9.00;99.90
1359;DHT22;673;48.098;14.422;2024-02-21T08:49:31;8.90;99.90
1359;DHT22;673;48.098;14.422;2024-02-21T08:51:58;9.10;99.90
1359;DHT22;673;48.098;14.422;2024-02-21T08:54:25;9.10;99.90
1359;DHT22;673;48.098;14.422;2024-02-21T08:56:52;8.90;99.90
1359;DHT22;673;48.098;14.422;2024-02-21T08:59:20;9.00;99.90
1359;DHT22;673;48.098;14.422;2024-02-21T09:01:47;8.90;99.90
1359;DHT22;673;48.098;14.422;2024-02-21T09:04:14;8.90;99.90
1359;DHT22;673;48.098;14.422;2024-02-21T09:06:41;8.80;99.90
1359;DHT22;673;48.098;14.422;2024-02-21T09:09:10;8.60;99.90
1359;DHT22;673;48.098;14.422;2024-02-21T09:11:37;8.60;99.90
1359;DHT22;673;48.098;14.422;2024-02-21T09:14:05;8.60;99.90
1359;DHT22;673;48.098;14.422;2024-02-21T09:16:34;8.60;99.90
1359;DHT22;673;48.098;14.422;2024-02-21T09:19:01;8.60;99.90
1359;DHT22;673;48.098;14.422;2024-02-21T09:21:28;8.80;99.90
1359;DHT22;673;48.098;14.422;2024-02-21T09:23:55;8.80;99.90
1359;DHT22;673;48.098;14.422;2024-02-21T09:26:22;8.80;99.90
1359;DHT22;673;48.098;14.422;2024-02-21T09:28:49;8.80;99.70
1359;DHT22;673;48.098;14.422;2024-02-21T09:31:17;8.80;99.90
1359;DHT22;673;48.098;14.422;2024-02-21T09:33:45;8.90;99.90
1359;DHT22;673;48.098;14.422;2024-02-21T09:36:12;9.00;99.90
1359;DHT22;673;48.098;14.422;2024-02-21T09:38:40;9.10;99.70
1359;DHT22;673;48.098;14.422;2024-02-21T09:41:14;9.10;99.80
1359;DHT22;673;48.098;14.422;2024-02-21T09:43:43;9.20;98.70
1359;DHT22;673;48.098;14.422;2024-02-21T09:46:15;9.30;98.50
1359;DHT22;673;48.098;14.422;2024-02-21T09:48:53;9.30;98.00
1359;DHT22;673;48.098;14.422;2024-02-21T09:51:24;9.30;98.90
1359;DHT22;673;48.098;14.422;2024-02-21T09:53:53;9.20;99.20
1359;DHT22;673;48.098;14.422;2024-02-21T09:56:21;9.10;99.20
1359;DHT22;673;48.098;14.422;2024-02-21T09:58:48;9.20;99.00
1359;DHT22;673;48.098;14.422;2024-02-21T10:01:15;9.30;99.90
1359;DHT22;673;48.098;14.422;2024-02-21T10:03:42;9.40;99.30
1359;DHT22;673;48.098;14.422;2024-02-21T10:06:11;9.40;99.30
1359;DHT22;673;48.098;14.422;2024-02-21T10:08:38;9.60;99.90
1359;DHT22;673;48.098;14.422;2024-02-21T10:11:05;9.70;99.30
1359;DHT22;673;48.098;14.422;2024-02-21T10:13:35;9.80;99.10
1359;DHT22;673;48.098;14.422;2024-02-21T10:16:04;9.80;98.50
1359;DHT22;673;48.098;14.422;2024-02-21T10:18:32;9.90;97.90
1359;DHT22;673;48.098;14.422;2024-02-21T10:21:03;9.80;97.80
1359;DHT22;673;48.098;14.422;2024-02-21T10:23:44;10.10;97.40
1359;DHT22;673;48.098;14.422;2024-02-21T10:26:11;10.20;97.60
1359;DHT22;673;48.098;14.422;2024-02-21T10:28:38;10.60;96.60
1359;DHT22;673;48.098;14.422;2024-02-21T10:31:08;10.70;94.60
1359;DHT22;673;48.098;14.422;2024-02-21T10:33:36;10.70;94.90
1359;DHT22;673;48.098;14.422;2024-02-21T10:36:07;10.60;93.70
1359;DHT22;673;48.098;14.422;2024-02-21T10:38:37;10.60;94.50
1359;DHT22;673;48.098;14.422;2024-02-21T10:41:04;10.50;94.90
1359;DHT22;673;48.098;14.422;2024-02-21T10:43:37;10.50;95.30
1359;DHT22;673;48.098;14.422;2024-02-21T10:46:06;10.70;94.60
1359;DHT22;673;48.098;14.422;2024-02-21T10:48:41;10.80;93.00
1359;DHT22;673;48.098;14.422;2024-02-21T10:51:15;10.90;94.20
1359;DHT22;673;48.098;14.422;2024-02-21T10:53:53;11.00;93.70
1359;DHT22;673;48.098;14.422;2024-02-21T10:56:25;10.80;93.30
1359;DHT22;673;48.098;14.422;2024-02-21T10:58:53;10.60;92.60
1359;DHT22;673;48.098;14.422;2024-02-21T11:01:21;10.70;92.50
1359;DHT22;673;48.098;14.422;2024-02-21T11:03:52;10.80;91.80
1359;DHT22;673;48.098;14.422;2024-02-21T11:06:21;10.90;92.10
1359;DHT22;673;48.098;14.422;2024-02-21T11:09:03;10.70;91.80
1359;DHT22;673;48.098;14.422;2024-02-21T11:11:33;10.80;91.60
1359;DHT22;673;48.098;14.422;2024-02-21T11:14:10;10.90;91.00
1359;DHT22;673;48.098;14.422;2024-02-21T11:16:40;11.10;91.10
1359;DHT22;673;48.098;14.422;2024-02-21T11:19:08;11.10;91.50
1359;DHT22;673;48.098;14.422;2024-02-21T11:21:37;11.20;92.70
1359;DHT22;673;48.098;14.422;2024-02-21T11:24:06;11.30;92.70
1359;DHT22;673;48.098;14.422;2024-02-21T11:26:33;11.50;91.90
1359;DHT22;673;48.098;14.422;2024-02-21T11:29:00;11.30;91.30
1359;DHT22;673;48.098;14.422;2024-02-21T11:31:38;11.40;91.30
1359;DHT22;673;48.098;14.422;2024-02-21T11:34:09;11.40;90.60
1359;DHT22;673;48.098;14.422;2024-02-21T11:36:36;11.20;91.50
1359;DHT22;673;48.098;14.422;2024-02-21T11:39:05;11.10;91.10
1359;DHT22;673;48.098;14.422;2024-02-21T11:41:32;11.30;90.50
1359;DHT22;673;48.098;14.422;2024-02-21T11:43:59;11.30;91.70
1359;DHT22;673;48.098;14.422;2024-02-21T11:46:26;11.20;91.00
1359;DHT22;673;48.098;14.422;2024-02-21T11:48:53;11.10;90.50
1359;DHT22;673;48.098;14.422;2024-02-21T11:51:22;11.10;90.80
1359;DHT22;673;48.098;14.422;2024-02-21T11:53:52;10.90;94.40
1359;DHT22;673;48.098;14.422;2024-02-21T11:56:20;10.80;96.90
1359;DHT22;673;48.098;14.422;2024-02-21T11:58:49;10.70;96.20
1359;DHT22;673;48.098;14.422;2024-02-21T12:01:16;10.80;95.50
1359;DHT22;673;48.098;14.422;2024-02-21T12:03:43;11.10;94.40
1359;DHT22;673;48.098;14.422;2024-02-21T12:06:16;11.10;93.60
1359;DHT22;673;48.098;14.422;2024-02-21T12:08:46;11.00;93.80
1359;DHT22;673;48.098;14.422;2024-02-21T12:11:23;11.10;95.60
1359;DHT22;673;48.098;14.422;2024-02-21T12:14:00;11.10;93.90
1359;DHT22;673;48.098;14.422;2024-02-21T12:16:32;11.00;92.10
1359;DHT22;673;48.098;14.422;2024-02-21T12:19:00;10.90;92.80
1359;DHT22;673;48.098;14.422;2024-02-21T12:21:30;11.10;93.50
1359;DHT22;673;48.098;14.422;2024-02-21T12:23:58;11.20;93.10
1359;DHT22;673;48.098;14.422;2024-02-21T12:26:27;11.20;90.90
1359;DHT22;673;48.098;14.422;2024-02-21T12:28:54;11.40;91.40
1359;DHT22;673;48.098;14.422;2024-02-21T12:31:21;11.60;90.10
1359;DHT22;673;48.098;14.422;2024-02-21T12:33:48;11.70;88.70
1359;DHT22;673;48.098;14.422;2024-02-21T12:36:15;12.00;89.20
1359;DHT22;673;48.098;14.422;2024-02-21T12:38:42;12.20;89.90
1359;DHT22;673;48.098;14.422;2024-02-21T12:41:09;12.20;87.50
1359;DHT22;673;48.098;14.422;2024-02-21T12:43:40;12.20;87.50
1359;DHT22;673;48.098;14.422;2024-02-21T12:46:07;12.50;88.00
1359;DHT22;673;48.098;14.422;2024-02-21T12:48:34;12.50;85.10
1359;DHT22;673;48.098;14.422;2024-02-21T12:51:01;12.50;83.00
1359;DHT22;673;48.098;14.422;2024-02-21T12:53:28;12.70;88.30
1359;DHT22;673;48.098;14.422;2024-02-21T12:55:55;12.80;87.10
1359;DHT22;673;48.098;14.422;2024-02-21T12:58:22;12.70;89.50
1359;DHT22;673;48.098;14.422;2024-02-21T13:00:51;12.70;82.50
1359;DHT22;673;48.098;14.422;2024-02-21T13:03:18;12.40;85.60
1359;DHT22;673;48.098;14.422;2024-02-21T13:05:47;12.40;87.50
1359;DHT22;673;48.098;14.422;2024-02-21T13:08:14;12.20;85.30
1359;DHT22;673;48.098;14.422;2024-02-21T13:10:41;12.10;83.60
1359;DHT22;673;48.098;14.422;2024-02-21T13:13:08;12.20;83.30
1359;DHT22;673;48.098;14.422;2024-02-21T13:15:35;12.10;86.80
1359;DHT22;673;48.098;14.422;2024-02-21T13:18:06;12.30;85.50
1359;DHT22;673;48.098;14.422;2024-02-21T13:20:33;12.30;87.00
1359;DHT22;673;48.098;14.422;2024-02-21T13:23:00;12.20;80.00
1359;DHT22;673;48.098;14.422;2024-02-21T13:25:28;12.00;81.20
1359;DHT22;673;48.098;14.422;2024-02-21T13:27:55;12.10;90.00
1359;DHT22;673;48.098;14.422;2024-02-21T13:30:22;12.10;87.90
1359;DHT22;673;48.098;14.422;2024-02-21T13:32:50;12.10;82.40
1359;DHT22;673;48.098;14.422;2024-02-21T13:35:19;12.00;82.20
1359;DHT22;673;48.098;14.422;2024-02-21T13:37:46;11.90;79.30
1359;DHT22;673;48.098;14.422;2024-02-21T13:40:13;11.80;80.50
1359;DHT22;673;48.098;14.422;2024-02-21T13:42:40;11.70;81.00
1359;DHT22;673;48.098;14.422;2024-02-21T13:45:09;11.70;82.20
1359;DHT22;673;48.098;14.422;2024-02-21T13:47:36;11.90;84.70
1359;DHT22;673;48.098;14.422;2024-02-21T13:50:05;11.90;82.10
1359;DHT22;673;48.098;14.422;2024-02-21T13:52:36;11.90;82.80
1359;DHT22;673;48.098;14.422;2024-02-21T13:55:03;11.80;80.60
1359;DHT22;673;48.098;14.422;2024-02-21T13:57:34;11.90;83.80
1359;DHT22;673;48.098;14.422;2024-02-21T14:00:01;12.20;82.10
1359;DHT22;673;48.098;14.422;2024-02-21T14:02:28;12.00;79.90
1359;DHT22;673;48.098;14.422;2024-02-21T14:04:55;12.00;81.30
1359;DHT22;673;48.098;14.422;2024-02-21T14:07:22;11.90;78.20
1359;DHT22;673;48.098;14.422;2024-02-21T14:09:51;11.80;77.30
1359;DHT22;673;48.098;14.422;2024-02-21T14:12:17;12.00;78.50
1359;DHT22;673;48.098;14.422;2024-02-21T14:14:47;11.90;79.80
1359;DHT22;673;48.098;14.422;2024-02-21T14:17:15;11.80;81.50
1359;DHT22;673;48.098;14.422;2024-02-21T14:19:42;11.70;83.60
1359;DHT22;673;48.098;14.422;2024-02-21T14:22:10;11.70;83.70
1359;DHT22;673;48.098;14.422;2024-02-21T14:24:37;11.80;84.80
1359;DHT22;673;48.098;14.422;2024-02-21T14:27:06;12.00;85.00
1359;DHT22;673;48.098;14.422;2024-02-21T14:29:34;11.90;79.30
1359;DHT22;673;48.098;14.422;2024-02-21T14:32:01;11.90;78.50
1359;DHT22;673;48.098;14.422;2024-02-21T14:34:28;11.90;77.30
1359;DHT22;673;48.098;14.422;2024-02-21T14:36:55;11.90;77.40
1359;DHT22;673;48.098;14.422;2024-02-21T14:39:22;11.90;77.60
1359;DHT22;673;48.098;14.422;2024-02-21T14:41:49;12.00;76.30
1359;DHT22;673;48.098;14.422;2024-02-21T14:44:18;12.10;77.00
1359;DHT22;673;48.098;14.422;2024-02-21T14:46:44;12.00;77.90
1359;DHT22;673;48.098;14.422;2024-02-21T14:49:11;11.90;77.60
1359;DHT22;673;48.098;14.422;2024-02-21T14:51:38;12.00;77.50
1359;DHT22;673;48.098;14.422;2024-02-21T14:54:05;12.00;81.40
1359;DHT22;673;48.098;14.422;2024-02-21T14:56:34;11.90;81.50
1359;DHT22;673;48.098;14.422;2024-02-21T14:59:01;11.90;80.00
1359;DHT22;673;48.098;14.422;2024-02-21T15:01:29;11.80;79.90
1359;DHT22;673;48.098;14.422;2024-02-21T15:03:57;11.70;80.80
1359;DHT22;673;48.098;14.422;2024-02-21T15:06:24;11.50;79.90
1359;DHT22;673;48.098;14.422;2024-02-21T15:08:51;11.40;78.60
1359;DHT22;673;48.098;14.422;2024-02-21T15:11:19;11.50;80.40
1359;DHT22;673;48.098;14.422;2024-02-21T15:13:47;11.30;80.10
1359;DHT22;673;48.098;14.422;2024-02-21T15:16:14;11.20;77.50
1359;DHT22;673;48.098;14.422;2024-02-21T15:18:43;11.20;80.00
1359;DHT22;673;48.098;14.422;2024-02-21T15:21:10;11.30;81.90
1359;DHT22;673;48.098;14.422;2024-02-21T15:23:39;11.20;80.70
1359;DHT22;673;48.098;14.422;2024-02-21T15:26:06;11.30;78.50
1359;DHT22;673;48.098;14.422;2024-02-21T15:28:33;11.10;81.40
1359;DHT22;673;48.098;14.422;2024-02-21T15:31:00;10.90;83.40
1359;DHT22;673;48.098;14.422;2024-02-21T15:33:29;10.80;85.60
1359;DHT22;673;48.098;14.422;2024-02-21T15:35:57;10.60;87.00
1359;DHT22;673;48.098;14.422;2024-02-21T15:38:24;10.40;88.80
1359;DHT22;673;48.098;14.422;2024-02-21T15:40:51;10.30;89.90
1359;DHT22;673;48.098;14.422;2024-02-21T15:43:18;10.20;90.90
1359;DHT22;673;48.098;14.422;2024-02-21T15:45:45;10.10;90.80
1359;DHT22;673;48.098;14.422;2024-02-21T15:48:12;10.00;91.20
1359;DHT22;673;48.098;14.422;2024-02-21T15:50:39;9.90;91.70
1359;DHT22;673;48.098;14.422;2024-02-21T15:53:08;9.90;92.00
1359;DHT22;673;48.098;14.422;2024-02-21T15:55:36;9.70;93.40
1359;DHT22;673;48.098;14.422;2024-02-21T15:58:03;9.60;93.90
1359;DHT22;673;48.098;14.422;2024-02-21T16:00:31;9.40;94.20
1359;DHT22;673;48.098;14.422;2024-02-21T16:02:59;9.30;93.80
1359;DHT22;673;48.098;14.422;2024-02-21T16:05:26;9.30;93.50
1359;DHT22;673;48.098;14.422;2024-02-21T16:07:53;9.20;93.20
1359;DHT22;673;48.098;14.422;2024-02-21T16:10:21;9.20;93.50
1359;DHT22;673;48.098;14.422;2024-02-21T16:12:48;9.00;93.70
1359;DHT22;673;48.098;14.422;2024-02-21T16:15:17;9.00;93.30
1359;DHT22;673;48.098;14.422;2024-02-21T16:17:44;9.00;93.30
1359;DHT22;673;48.098;14.422;2024-02-21T16:20:11;9.00;93.10
1359;DHT22;673;48.098;14.422;2024-02-21T16:22:41;9.00;93.40
1359;DHT22;673;48.098;14.422;2024-02-21T16:25:08;8.90;94.10
1359;DHT22;673;48.098;14.422;2024-02-21T16:27:36;8.80;94.90
1359;DHT22;673;48.098;14.422;2024-02-21T16:30:07;8.90;95.70
1359;DHT22;673;48.098;14.422;2024-02-21T16:32:34;8.90;96.20
1359;DHT22;673;48.098;14.422;2024-02-21T16:35:04;8.80;96.90
1359;DHT22;673;48.098;14.422;2024-02-21T16:37:31;8.80;97.70
1359;DHT22;673;48.098;14.422;2024-02-21T16:39:59;8.80;98.50
1359;DHT22;673;48.098;14.422;2024-02-21T16:42:26;8.70;99.10
1359;DHT22;673;48.098;14.422;2024-02-21T16:44:54;8.60;99.50
1359;DHT22;673;48.098;14.422;2024-02-21T16:47:21;8.50;99.90
1359;DHT22;673;48.098;14.422;2024-02-21T16:49:50;8.40;99.90
1359;DHT22;673;48.098;14.422;2024-02-21T16:52:17;8.30;99.90
1359;DHT22;673;48.098;14.422;2024-02-21T16:54:44;8.30;99.90
1359;DHT22;673;48.098;14.422;2024-02-21T16:57:11;8.20;99.90